sensor_id;sensor_type;location;lat;lon;timestamp;temperature;humidity
21481;DHT22;10902;48.158;8.634;2022-10-16T00:00:41;12.80;99.90
21481;DHT22;10902;48.158;8.634;2022-10-16T00:03:07;12.80;99.90
21481;DHT22;10902;48.158;8.634;2022-10-16T00:05:37;12.80;99.90
21481;DHT22;10902;48.158;8.634;2022-10-16T00:08:03;12.90;99.90
21481;DHT22;10902;48.158;8.634;2022-10-16T00:10:29;12.90;99.90
21481;DHT22;10902;48.158;8.634;2022-10-16T00:12:55;12.80;99.90
21481;DHT22;10902;48.158;8.634;2022-10-16T00:15:20;13.00;99.90
21481;DHT22;10902;48.158;8.634;2022-10-16T00:17:46;13.00;99.90
21481;DHT22;10902;48.158;8.634;2022-10-16T00:20:11;13.10;99.90
21481;DHT22;10902;48.158;8.634;2022-10-16T00:22:37;13.10;99.90
21481;DHT22;10902;48.158;8.634;2022-10-16T00:25:03;13.10;99.90
21481;DHT22;10902;48.158;8.634;2022-10-16T00:27:28;13.10;99.90
21481;DHT22;10902;48.158;8.634;2022-10-16T00:29:54;13.10;99.90
21481;DHT22;10902;48.158;8.634;2022-10-16T00:32:20;13.10;99.90
21481;DHT22;10902;48.158;8.634;2022-10-16T00:34:46;13.20;99.90
21481;DHT22;10902;48.158;8.634;2022-10-16T00:37:12;13.20;99.90
21481;DHT22;10902;48.158;8.634;2022-10-16T00:39:38;13.30;99.90
21481;DHT22;10902;48.158;8.634;2022-10-16T00:42:03;13.20;99.90
21481;DHT22;10902;48.158;8.634;2022-10-16T00:44:49;13.20;99.90
21481;DHT22;10902;48.158;8.634;2022-10-16T00:47:28;13.20;99.90
21481;DHT22;10902;48.158;8.634;2022-10-16T00:50:21;13.20;99.90
21481;DHT22;10902;48.158;8.634;2022-10-16T00:52:48;13.20;99.90
21481;DHT22;10902;48.158;8.634;2022-10-16T00:55:15;13.20;99.90
21481;DHT22;10902;48.158;8.634;2022-10-16T00:57:42;13.20;99.90
21481;DHT22;10902;48.158;8.634;2022-10-16T01:00:11;13.20;99.90
21481;DHT22;10902;48.158;8.634;2022-10-16T01:02:37;13.20;99.90
21481;DHT22;10902;48.158;8.634;2022-10-16T01:05:04;13.20;99.90
21481;DHT22;10902;48.158;8.634;2022-10-16T01:13:01;13.20;99.90
21481;DHT22;10902;48.158;8.634;2022-10-16T01:15:33;13.20;99.90
21481;DHT22;10902;48.158;8.634;2022-10-16T01:18:05;13.30;99.90
21481;DHT22;10902;48.158;8.634;2022-10-16T01:20:45;13.20;99.90
21481;DHT22;10902;48.158;8.634;2022-10-16T01:28:45;13.20;99.90
21481;DHT22;10902;48.158;8.634;2022-10-16T01:31:15;13.20;99.90
21481;DHT22;10902;48.158;8.634;2022-10-16T01:33:46;13.10;99.90
21481;DHT22;10902;48.158;8.634;2022-10-16T01:36:24;13.10;99.90
21481;DHT22;10902;48.158;8.634;2022-10-16T01:38:52;13.10;99.90
21481;DHT22;10902;48.158;8.634;2022-10-16T01:41:24;13.00;99.90
21481;DHT22;10902;48.158;8.634;2022-10-16T01:43:59;13.00;99.90
21481;DHT22;10902;48.158;8.634;2022-10-16T01:46:27;13.00;99.90
21481;DHT22;10902;48.158;8.634;2022-10-16T01:48:53;13.10;99.90
21481;DHT22;10902;48.158;8.634;2022-10-16T01:51:20;13.10;99.90
21481;DHT22;10902;48.158;8.634;2022-10-16T01:53:50;13.10;99.90
21481;DHT22;10902;48.158;8.634;2022-10-16T01:56:18;13.10;99.90
21481;DHT22;10902;48.158;8.634;2022-10-16T01:59:01;13.10;99.90
21481;DHT22;10902;48.158;8.634;2022-10-16T02:01:31;13.10;99.90
21481;DHT22;10902;48.158;8.634;2022-10-16T02:04:03;13.10;99.90
21481;DHT22;10902;48.158;8.634;2022-10-16T02:06:30;13.20;99.90
21481;DHT22;10902;48.158;8.634;2022-10-16T02:08:56;13.20;99.90
21481;DHT22;10902;48.158;8.634;2022-10-16T02:11:22;13.20;99.90
21481;DHT22;10902;48.158;8.634;2022-10-16T02:14:04;13.10;99.90
21481;DHT22;10902;48.158;8.634;2022-10-16T02:16:36;13.10;99.90
21481;DHT22;10902;48.158;8.634;2022-10-16T02:19:03;13.20;99.90
21481;DHT22;10902;48.158;8.634;2022-10-16T02:26:57;13.20;99.90
21481;DHT22;10902;48.158;8.634;2022-10-16T02:29:26;13.30;99.90
21481;DHT22;10902;48.158;8.634;2022-10-16T02:32:02;13.30;99.90
21481;DHT22;10902;48.158;8.634;2022-10-16T02:34:30;13.40;99.90
21481;DHT22;10902;48.158;8.634;2022-10-16T02:36:58;13.40;99.90
21481;DHT22;10902;48.158;8.634;2022-10-16T02:39:27;13.30;99.90
21481;DHT22;10902;48.158;8.634;2022-10-16T02:41:53;13.30;99.90
21481;DHT22;10902;48.158;8.634;2022-10-16T02:44:19;13.30;99.90
21481;DHT22;10902;48.158;8.634;2022-10-16T02:46:44;13.30;99.90
21481;DHT22;10902;48.158;8.634;2022-10-16T02:49:10;13.30;99.90
21481;DHT22;10902;48.158;8.634;2022-10-16T02:51:35;13.30;99.90
21481;DHT22;10902;48.158;8.634;2022-10-16T02:54:02;13.30;99.90
21481;DHT22;10902;48.158;8.634;2022-10-16T02:56:28;13.20;99.90
21481;DHT22;10902;48.158;8.634;2022-10-16T02:58:55;13.20;99.90
21481;DHT22;10902;48.158;8.634;2022-10-16T03:01:20;13.20;99.90
21481;DHT22;10902;48.158;8.634;2022-10-16T03:03:46;13.20;99.90
21481;DHT22;10902;48.158;8.634;2022-10-16T03:06:12;13.20;99.90
21481;DHT22;10902;48.158;8.634;2022-10-16T03:08:37;13.10;99.90
21481;DHT22;10902;48.158;8.634;2022-10-16T03:11:03;13.10;99.90
21481;DHT22;10902;48.158;8.634;2022-10-16T03:13:28;13.10;99.90
21481;DHT22;10902;48.158;8.634;2022-10-16T03:15:54;13.10;99.90
21481;DHT22;10902;48.158;8.634;2022-10-16T03:18:19;13.10;99.90
21481;DHT22;10902;48.158;8.634;2022-10-16T03:20:45;13.10;99.90
21481;DHT22;10902;48.158;8.634;2022-10-16T03:23:11;13.10;99.90
21481;DHT22;10902;48.158;8.634;2022-10-16T03:25:36;13.20;99.90
21481;DHT22;10902;48.158;8.634;2022-10-16T03:28:02;13.20;99.90
21481;DHT22;10902;48.158;8.634;2022-10-16T03:30:28;13.20;99.90
21481;DHT22;10902;48.158;8.634;2022-10-16T03:32:54;13.10;99.90
21481;DHT22;10902;48.158;8.634;2022-10-16T03:35:23;13.10;99.90
21481;DHT22;10902;48.158;8.634;2022-10-16T03:37:49;13.00;99.90
21481;DHT22;10902;48.158;8.634;2022-10-16T03:40:15;13.00;99.90
21481;DHT22;10902;48.158;8.634;2022-10-16T03:42:44;12.90;99.90
21481;DHT22;10902;48.158;8.634;2022-10-16T03:45:10;12.90;99.90
21481;DHT22;10902;48.158;8.634;2022-10-16T03:47:36;12.90;99.90
21481;DHT22;10902;48.158;8.634;2022-10-16T03:50:03;12.80;99.90
21481;DHT22;10902;48.158;8.634;2022-10-16T03:52:29;12.90;99.90
21481;DHT22;10902;48.158;8.634;2022-10-16T03:54:54;13.00;99.90
21481;DHT22;10902;48.158;8.634;2022-10-16T03:57:21;13.00;99.90
21481;DHT22;10902;48.158;8.634;2022-10-16T03:59:46;13.10;99.90
21481;DHT22;10902;48.158;8.634;2022-10-16T04:02:12;13.10;99.90
21481;DHT22;10902;48.158;8.634;2022-10-16T04:04:38;13.00;99.90
21481;DHT22;10902;48.158;8.634;2022-10-16T04:07:04;13.00;99.90
21481;DHT22;10902;48.158;8.634;2022-10-16T04:09:29;13.00;99.90
21481;DHT22;10902;48.158;8.634;2022-10-16T04:11:55;13.00;99.90
21481;DHT22;10902;48.158;8.634;2022-10-16T04:14:20;12.90;99.90
21481;DHT22;10902;48.158;8.634;2022-10-16T04:16:46;13.00;99.90
21481;DHT22;10902;48.158;8.634;2022-10-16T04:19:11;13.00;99.90
21481;DHT22;10902;48.158;8.634;2022-10-16T04:21:37;13.00;99.90
21481;DHT22;10902;48.158;8.634;2022-10-16T04:24:03;13.10;99.90
21481;DHT22;10902;48.158;8.634;2022-10-16T04:26:28;13.10;99.90
21481;DHT22;10902;48.158;8.634;2022-10-16T04:28:54;13.10;99.90
21481;DHT22;10902;48.158;8.634;2022-10-16T04:31:20;13.00;99.90
21481;DHT22;10902;48.158;8.634;2022-10-16T04:33:46;12.90;99.90
21481;DHT22;10902;48.158;8.634;2022-10-16T04:36:12;12.80;99.90
21481;DHT22;10902;48.158;8.634;2022-10-16T04:38:38;12.80;99.90
21481;DHT22;10902;48.158;8.634;2022-10-16T04:41:05;12.80;99.90
21481;DHT22;10902;48.158;8.634;2022-10-16T04:43:31;12.90;99.90
21481;DHT22;10902;48.158;8.634;2022-10-16T04:45:56;12.90;99.90
21481;DHT22;10902;48.158;8.634;2022-10-16T04:48:22;12.90;99.90
21481;DHT22;10902;48.158;8.634;2022-10-16T04:50:48;12.90;99.90
21481;DHT22;10902;48.158;8.634;2022-10-16T04:53:13;13.00;99.90
21481;DHT22;10902;48.158;8.634;2022-10-16T04:55:40;13.10;99.90
21481;DHT22;10902;48.158;8.634;2022-10-16T04:58:06;13.10;99.90
21481;DHT22;10902;48.158;8.634;2022-10-16T05:00:32;13.10;99.90
21481;DHT22;10902;48.158;8.634;2022-10-16T05:02:58;13.10;99.90
21481;DHT22;10902;48.158;8.634;2022-10-16T05:05:26;13.10;99.90
21481;DHT22;10902;48.158;8.634;2022-10-16T05:07:51;13.10;99.90
21481;DHT22;10902;48.158;8.634;2022-10-16T05:10:17;13.20;99.90
21481;DHT22;10902;48.158;8.634;2022-10-16T05:12:43;13.20;99.90
21481;DHT22;10902;48.158;8.634;2022-10-16T05:15:09;13.30;99.90
21481;DHT22;10902;48.158;8.634;2022-10-16T05:17:35;13.20;99.90
21481;DHT22;10902;48.158;8.634;2022-10-16T05:20:00;13.20;99.90
21481;DHT22;10902;48.158;8.634;2022-10-16T05:22:26;13.30;99.90
21481;DHT22;10902;48.158;8.634;2022-10-16T05:24:51;13.40;99.90
21481;DHT22;10902;48.158;8.634;2022-10-16T05:27:17;13.50;99.90
21481;DHT22;10902;48.158;8.634;2022-10-16T05:29:46;13.40;99.90
21481;DHT22;10902;48.158;8.634;2022-10-16T05:32:14;13.50;99.90
21481;DHT22;10902;48.158;8.634;2022-10-16T05:34:39;13.60;99.90
21481;DHT22;10902;48.158;8.634;2022-10-16T05:37:05;13.50;99.90
21481;DHT22;10902;48.158;8.634;2022-10-16T05:39:30;13.50;99.90
21481;DHT22;10902;48.158;8.634;2022-10-16T05:41:56;13.40;99.90
21481;DHT22;10902;48.158;8.634;2022-10-16T05:44:22;13.30;99.90
21481;DHT22;10902;48.158;8.634;2022-10-16T05:46:47;13.30;99.90
21481;DHT22;10902;48.158;8.634;2022-10-16T05:49:13;13.30;99.90
21481;DHT22;10902;48.158;8.634;2022-10-16T05:51:39;13.40;99.90
21481;DHT22;10902;48.158;8.634;2022-10-16T05:54:04;13.40;99.90
21481;DHT22;10902;48.158;8.634;2022-10-16T05:56:30;13.40;99.90
21481;DHT22;10902;48.158;8.634;2022-10-16T05:58:55;13.40;99.90
21481;DHT22;10902;48.158;8.634;2022-10-16T06:01:21;13.40;99.90
21481;DHT22;10902;48.158;8.634;2022-10-16T06:03:50;13.40;99.90
21481;DHT22;10902;48.158;8.634;2022-10-16T06:06:18;13.40;99.90
21481;DHT22;10902;48.158;8.634;2022-10-16T06:08:45;13.30;99.90
21481;DHT22;10902;48.158;8.634;2022-10-16T06:11:13;13.30;99.90
21481;DHT22;10902;48.158;8.634;2022-10-16T06:13:39;13.30;99.90
21481;DHT22;10902;48.158;8.634;2022-10-16T06:16:08;13.30;99.90
21481;DHT22;10902;48.158;8.634;2022-10-16T06:18:34;13.20;99.90
21481;DHT22;10902;48.158;8.634;2022-10-16T06:20:59;13.30;99.90
21481;DHT22;10902;48.158;8.634;2022-10-16T06:23:25;13.30;99.90
21481;DHT22;10902;48.158;8.634;2022-10-16T06:25:51;13.40;99.90
21481;DHT22;10902;48.158;8.634;2022-10-16T06:28:16;13.40;99.90
21481;DHT22;10902;48.158;8.634;2022-10-16T06:30:42;13.40;99.90
21481;DHT22;10902;48.158;8.634;2022-10-16T06:33:12;13.40;99.90
21481;DHT22;10902;48.158;8.634;2022-10-16T06:35:38;13.40;99.90
21481;DHT22;10902;48.158;8.634;2022-10-16T06:38:03;13.30;99.90
21481;DHT22;10902;48.158;8.634;2022-10-16T06:40:29;13.40;99.90
21481;DHT22;10902;48.158;8.634;2022-10-16T06:42:55;13.50;99.90
21481;DHT22;10902;48.158;8.634;2022-10-16T06:45:20;13.50;99.90
21481;DHT22;10902;48.158;8.634;2022-10-16T06:47:46;13.60;99.90
21481;DHT22;10902;48.158;8.634;2022-10-16T06:50:12;13.70;99.90
21481;DHT22;10902;48.158;8.634;2022-10-16T06:52:37;13.70;99.90
21481;DHT22;10902;48.158;8.634;2022-10-16T06:55:03;13.70;99.90
21481;DHT22;10902;48.158;8.634;2022-10-16T06:57:29;13.70;99.90
21481;DHT22;10902;48.158;8.634;2022-10-16T06:59:54;13.80;99.90
21481;DHT22;10902;48.158;8.634;2022-10-16T07:02:20;13.90;99.90
21481;DHT22;10902;48.158;8.634;2022-10-16T07:04:45;13.90;99.90
21481;DHT22;10902;48.158;8.634;2022-10-16T07:07:11;13.90;99.90
21481;DHT22;10902;48.158;8.634;2022-10-16T07:09:36;14.00;99.90
21481;DHT22;10902;48.158;8.634;2022-10-16T07:12:02;14.10;99.90
21481;DHT22;10902;48.158;8.634;2022-10-16T07:14:28;14.10;99.90
21481;DHT22;10902;48.158;8.634;2022-10-16T07:16:55;14.20;99.90
21481;DHT22;10902;48.158;8.634;2022-10-16T07:19:20;14.30;99.90
21481;DHT22;10902;48.158;8.634;2022-10-16T07:21:46;14.30;99.90
21481;DHT22;10902;48.158;8.634;2022-10-16T07:24:14;14.30;99.90
21481;DHT22;10902;48.158;8.634;2022-10-16T07:26:41;14.30;99.90
21481;DHT22;10902;48.158;8.634;2022-10-16T07:29:12;14.40;99.90
21481;DHT22;10902;48.158;8.634;2022-10-16T07:31:38;14.40;99.90
21481;DHT22;10902;48.158;8.634;2022-10-16T07:34:04;14.50;99.90
21481;DHT22;10902;48.158;8.634;2022-10-16T07:36:29;14.50;99.90
21481;DHT22;10902;48.158;8.634;2022-10-16T07:38:55;14.60;99.90
21481;DHT22;10902;48.158;8.634;2022-10-16T07:41:21;14.70;99.90
21481;DHT22;10902;48.158;8.634;2022-10-16T07:43:48;14.80;99.90
21481;DHT22;10902;48.158;8.634;2022-10-16T07:46:15;15.00;99.90
21481;DHT22;10902;48.158;8.634;2022-10-16T07:48:40;15.10;99.90
21481;DHT22;10902;48.158;8.634;2022-10-16T07:51:07;15.20;99.90
21481;DHT22;10902;48.158;8.634;2022-10-16T07:53:33;15.30;99.90
21481;DHT22;10902;48.158;8.634;2022-10-16T07:56:00;15.50;99.90
21481;DHT22;10902;48.158;8.634;2022-10-16T07:58:26;15.60;99.90
21481;DHT22;10902;48.158;8.634;2022-10-16T08:00:53;15.60;99.90
21481;DHT22;10902;48.158;8.634;2022-10-16T08:03:18;15.50;99.90
21481;DHT22;10902;48.158;8.634;2022-10-16T08:05:44;15.70;99.90
21481;DHT22;10902;48.158;8.634;2022-10-16T08:08:17;15.70;99.90
21481;DHT22;10902;48.158;8.634;2022-10-16T08:10:43;15.60;99.90
21481;DHT22;10902;48.158;8.634;2022-10-16T08:13:08;15.70;99.90
21481;DHT22;10902;48.158;8.634;2022-10-16T08:15:34;15.70;99.90
21481;DHT22;10902;48.158;8.634;2022-10-16T08:18:01;15.60;99.90
21481;DHT22;10902;48.158;8.634;2022-10-16T08:20:28;15.60;99.90
21481;DHT22;10902;48.158;8.634;2022-10-16T08:22:54;15.50;99.90
21481;DHT22;10902;48.158;8.634;2022-10-16T08:25:22;15.60;99.90
21481;DHT22;10902;48.158;8.634;2022-10-16T08:27:48;15.60;99.90
21481;DHT22;10902;48.158;8.634;2022-10-16T08:30:15;15.60;99.90
21481;DHT22;10902;48.158;8.634;2022-10-16T08:32:41;15.60;99.90
21481;DHT22;10902;48.158;8.634;2022-10-16T08:35:08;15.60;99.90
21481;DHT22;10902;48.158;8.634;2022-10-16T08:37:34;15.60;99.90
21481;DHT22;10902;48.158;8.634;2022-10-16T08:40:00;15.70;99.90
21481;DHT22;10902;48.158;8.634;2022-10-16T08:42:50;15.70;99.90
21481;DHT22;10902;48.158;8.634;2022-10-16T08:50:38;15.80;99.90
21481;DHT22;10902;48.158;8.634;2022-10-16T08:53:04;15.90;99.90
21481;DHT22;10902;48.158;8.634;2022-10-16T08:55:50;16.00;99.90
21481;DHT22;10902;48.158;8.634;2022-10-16T08:58:19;16.10;99.90
21481;DHT22;10902;48.158;8.634;2022-10-16T09:00:47;16.10;99.90
21481;DHT22;10902;48.158;8.634;2022-10-16T09:03:34;16.30;99.90
21481;DHT22;10902;48.158;8.634;2022-10-16T09:06:21;16.30;99.90
21481;DHT22;10902;48.158;8.634;2022-10-16T09:11:51;16.60;99.90
21481;DHT22;10902;48.158;8.634;2022-10-16T09:17:39;16.70;99.90
21481;DHT22;10902;48.158;8.634;2022-10-16T09:22:35;16.90;99.90
21481;DHT22;10902;48.158;8.634;2022-10-16T09:25:10;16.80;99.90
21481;DHT22;10902;48.158;8.634;2022-10-16T09:27:37;16.70;99.90
21481;DHT22;10902;48.158;8.634;2022-10-16T09:30:15;16.70;99.90
21481;DHT22;10902;48.158;8.634;2022-10-16T09:32:42;16.60;99.90
21481;DHT22;10902;48.158;8.634;2022-10-16T09:35:21;16.60;99.90
21481;DHT22;10902;48.158;8.634;2022-10-16T09:37:50;16.50;99.90
21481;DHT22;10902;48.158;8.634;2022-10-16T09:40:49;16.50;99.90
21481;DHT22;10902;48.158;8.634;2022-10-16T09:45:43;16.40;99.90
21481;DHT22;10902;48.158;8.634;2022-10-16T09:48:19;16.50;99.90
21481;DHT22;10902;48.158;8.634;2022-10-16T09:50:58;16.60;99.90
21481;DHT22;10902;48.158;8.634;2022-10-16T09:53:43;16.90;99.90
21481;DHT22;10902;48.158;8.634;2022-10-16T09:56:21;17.10;99.90
21481;DHT22;10902;48.158;8.634;2022-10-16T09:58:56;17.10;99.90
21481;DHT22;10902;48.158;8.634;2022-10-16T10:01:46;16.90;99.90
21481;DHT22;10902;48.158;8.634;2022-10-16T10:04:10;16.90;99.90
21481;DHT22;10902;48.158;8.634;2022-10-16T10:06:47;17.20;99.90
21481;DHT22;10902;48.158;8.634;2022-10-16T10:09:25;17.70;99.90
21481;DHT22;10902;48.158;8.634;2022-10-16T10:11:56;17.80;99.90
21481;DHT22;10902;48.158;8.634;2022-10-16T10:19:36;18.80;99.90
21481;DHT22;10902;48.158;8.634;2022-10-16T10:22:16;19.20;99.90
21481;DHT22;10902;48.158;8.634;2022-10-16T10:24:44;20.40;99.90
21481;DHT22;10902;48.158;8.634;2022-10-16T10:27:15;21.00;99.90
21481;DHT22;10902;48.158;8.634;2022-10-16T10:32:27;23.00;99.90
21481;DHT22;10902;48.158;8.634;2022-10-16T10:35:03;22.60;99.90
21481;DHT22;10902;48.158;8.634;2022-10-16T10:37:48;23.10;99.90
21481;DHT22;10902;48.158;8.634;2022-10-16T10:43:15;22.60;99.90
21481;DHT22;10902;48.158;8.634;2022-10-16T10:45:46;22.20;99.90
21481;DHT22;10902;48.158;8.634;2022-10-16T10:51:13;20.30;99.90
21481;DHT22;10902;48.158;8.634;2022-10-16T10:54:10;19.50;99.90
21481;DHT22;10902;48.158;8.634;2022-10-16T11:02:10;19.00;99.90
21481;DHT22;10902;48.158;8.634;2022-10-16T11:05:14;19.40;99.90
21481;DHT22;10902;48.158;8.634;2022-10-16T11:07:57;19.60;99.90
21481;DHT22;10902;48.158;8.634;2022-10-16T11:10:44;19.90;99.90
21481;DHT22;10902;48.158;8.634;2022-10-16T11:16:27;20.20;99.90
21481;DHT22;10902;48.158;8.634;2022-10-16T11:19:05;20.50;99.90
21481;DHT22;10902;48.158;8.634;2022-10-16T11:22:00;20.30;99.90
21481;DHT22;10902;48.158;8.634;2022-10-16T11:24:42;20.10;99.90
21481;DHT22;10902;48.158;8.634;2022-10-16T11:27:15;20.20;99.90
21481;DHT22;10902;48.158;8.634;2022-10-16T11:29:52;20.30;99.90
21481;DHT22;10902;48.158;8.634;2022-10-16T11:32:26;20.50;99.90
21481;DHT22;10902;48.158;8.634;2022-10-16T11:34:59;20.90;99.90
21481;DHT22;10902;48.158;8.634;2022-10-16T11:37:31;20.90;99.90
21481;DHT22;10902;48.158;8.634;2022-10-16T11:40:05;21.50;99.90
21481;DHT22;10902;48.158;8.634;2022-10-16T11:42:44;22.10;99.90
21481;DHT22;10902;48.158;8.634;2022-10-16T11:45:33;22.80;99.90
21481;DHT22;10902;48.158;8.634;2022-10-16T11:48:08;22.60;99.90
21481;DHT22;10902;48.158;8.634;2022-10-16T11:50:53;22.50;99.90
21481;DHT22;10902;48.158;8.634;2022-10-16T11:55:54;21.70;99.90
21481;DHT22;10902;48.158;8.634;2022-10-16T11:58:27;21.60;99.90
21481;DHT22;10902;48.158;8.634;2022-10-16T12:03:45;21.30;99.90
21481;DHT22;10902;48.158;8.634;2022-10-16T12:08:54;21.50;99.90
21481;DHT22;10902;48.158;8.634;2022-10-16T12:11:35;22.10;99.90
21481;DHT22;10902;48.158;8.634;2022-10-16T12:14:19;23.10;99.90
21481;DHT22;10902;48.158;8.634;2022-10-16T12:16:55;23.60;99.90
21481;DHT22;10902;48.158;8.634;2022-10-16T12:19:22;23.50;99.90
21481;DHT22;10902;48.158;8.634;2022-10-16T12:21:50;23.70;99.90
21481;DHT22;10902;48.158;8.634;2022-10-16T12:26:48;23.40;99.90
21481;DHT22;10902;48.158;8.634;2022-10-16T12:29:54;23.00;99.90
21481;DHT22;10902;48.158;8.634;2022-10-16T12:32:28;23.20;99.90
21481;DHT22;10902;48.158;8.634;2022-10-16T12:34:54;24.20;99.90
21481;DHT22;10902;48.158;8.634;2022-10-16T12:37:24;25.40;99.90
21481;DHT22;10902;48.158;8.634;2022-10-16T12:39:52;25.20;99.90
21481;DHT22;10902;48.158;8.634;2022-10-16T12:42:31;26.00;99.90
21481;DHT22;10902;48.158;8.634;2022-10-16T12:44:57;26.30;99.90
21481;DHT22;10902;48.158;8.634;2022-10-16T12:47:35;27.10;99.90
21481;DHT22;10902;48.158;8.634;2022-10-16T12:50:01;26.80;99.90
21481;DHT22;10902;48.158;8.634;2022-10-16T12:52:39;26.20;99.90
21481;DHT22;10902;48.158;8.634;2022-10-16T12:55:16;27.80;99.90
21481;DHT22;10902;48.158;8.634;2022-10-16T13:08:54;25.20;99.90
21481;DHT22;10902;48.158;8.634;2022-10-16T13:27:43;24.30;99.90
21481;DHT22;10902;48.158;8.634;2022-10-16T13:30:26;23.80;99.90
21481;DHT22;10902;48.158;8.634;2022-10-16T13:33:06;23.50;99.90
21481;DHT22;10902;48.158;8.634;2022-10-16T13:35:34;22.90;99.90
21481;DHT22;10902;48.158;8.634;2022-10-16T13:38:15;22.40;99.90
21481;DHT22;10902;48.158;8.634;2022-10-16T13:40:57;22.50;99.90
21481;DHT22;10902;48.158;8.634;2022-10-16T13:43:44;23.00;99.90
21481;DHT22;10902;48.158;8.634;2022-10-16T13:46:16;23.80;99.90
21481;DHT22;10902;48.158;8.634;2022-10-16T13:48:42;24.10;99.90
21481;DHT22;10902;48.158;8.634;2022-10-16T13:51:17;24.30;99.90
21481;DHT22;10902;48.158;8.634;2022-10-16T13:53:44;24.20;99.90
21481;DHT22;10902;48.158;8.634;2022-10-16T13:56:16;24.30;99.90
21481;DHT22;10902;48.158;8.634;2022-10-16T13:58:43;24.30;99.90
21481;DHT22;10902;48.158;8.634;2022-10-16T14:01:19;24.40;99.90
21481;DHT22;10902;48.158;8.634;2022-10-16T14:03:46;24.80;99.90
21481;DHT22;10902;48.158;8.634;2022-10-16T14:06:15;25.00;99.90
21481;DHT22;10902;48.158;8.634;2022-10-16T14:08:45;24.90;99.90
21481;DHT22;10902;48.158;8.634;2022-10-16T14:11:23;24.00;99.90
21481;DHT22;10902;48.158;8.634;2022-10-16T14:13:50;23.90;99.90
21481;DHT22;10902;48.158;8.634;2022-10-16T14:16:27;23.70;99.90
21481;DHT22;10902;48.158;8.634;2022-10-16T14:19:03;24.20;99.90
21481;DHT22;10902;48.158;8.634;2022-10-16T14:21:31;24.60;99.90
21481;DHT22;10902;48.158;8.634;2022-10-16T14:23:57;24.00;99.90
21481;DHT22;10902;48.158;8.634;2022-10-16T14:26:26;23.70;99.90
21481;DHT22;10902;48.158;8.634;2022-10-16T14:29:15;23.20;99.90
21481;DHT22;10902;48.158;8.634;2022-10-16T14:31:42;23.10;99.90
21481;DHT22;10902;48.158;8.634;2022-10-16T14:34:31;23.10;99.90
21481;DHT22;10902;48.158;8.634;2022-10-16T14:39:33;23.10;99.90
21481;DHT22;10902;48.158;8.634;2022-10-16T14:41:59;23.00;99.90
21481;DHT22;10902;48.158;8.634;2022-10-16T14:44:33;23.40;99.90
21481;DHT22;10902;48.158;8.634;2022-10-16T14:47:15;23.30;99.90
21481;DHT22;10902;48.158;8.634;2022-10-16T14:49:41;23.50;99.90
21481;DHT22;10902;48.158;8.634;2022-10-16T14:52:12;23.00;99.90
21481;DHT22;10902;48.158;8.634;2022-10-16T14:54:38;22.80;99.90
21481;DHT22;10902;48.158;8.634;2022-10-16T14:57:04;22.50;99.90
21481;DHT22;10902;48.158;8.634;2022-10-16T14:59:35;22.10;99.90
21481;DHT22;10902;48.158;8.634;2022-10-16T15:04:46;22.30;99.90
21481;DHT22;10902;48.158;8.634;2022-10-16T15:07:12;22.70;99.90
21481;DHT22;10902;48.158;8.634;2022-10-16T15:09:38;23.00;99.90
21481;DHT22;10902;48.158;8.634;2022-10-16T15:12:03;23.40;99.90
21481;DHT22;10902;48.158;8.634;2022-10-16T15:14:29;23.20;99.90
21481;DHT22;10902;48.158;8.634;2022-10-16T15:16:54;22.90;99.90
21481;DHT22;10902;48.158;8.634;2022-10-16T15:19:20;22.60;99.90
21481;DHT22;10902;48.158;8.634;2022-10-16T15:21:45;21.80;99.90
21481;DHT22;10902;48.158;8.634;2022-10-16T15:24:12;21.70;99.90
21481;DHT22;10902;48.158;8.634;2022-10-16T15:26:39;21.60;99.90
21481;DHT22;10902;48.158;8.634;2022-10-16T15:29:05;21.80;99.90
21481;DHT22;10902;48.158;8.634;2022-10-16T15:31:31;21.90;99.90
21481;DHT22;10902;48.158;8.634;2022-10-16T15:33:57;21.60;99.90
21481;DHT22;10902;48.158;8.634;2022-10-16T15:36:34;21.30;99.90
21481;DHT22;10902;48.158;8.634;2022-10-16T15:39:03;21.40;99.90
21481;DHT22;10902;48.158;8.634;2022-10-16T15:41:28;22.00;99.90
21481;DHT22;10902;48.158;8.634;2022-10-16T15:43:54;22.20;99.90
21481;DHT22;10902;48.158;8.634;2022-10-16T15:46:21;22.20;99.90
21481;DHT22;10902;48.158;8.634;2022-10-16T15:48:49;21.90;99.90
21481;DHT22;10902;48.158;8.634;2022-10-16T15:51:15;21.30;99.90
21481;DHT22;10902;48.158;8.634;2022-10-16T15:53:41;21.10;99.90
21481;DHT22;10902;48.158;8.634;2022-10-16T15:56:08;21.30;99.90
21481;DHT22;10902;48.158;8.634;2022-10-16T15:58:34;21.30;99.90
21481;DHT22;10902;48.158;8.634;2022-10-16T16:01:01;20.90;99.90
21481;DHT22;10902;48.158;8.634;2022-10-16T16:03:28;20.60;99.90
21481;DHT22;10902;48.158;8.634;2022-10-16T16:05:54;20.10;99.90
21481;DHT22;10902;48.158;8.634;2022-10-16T16:08:20;20.00;99.90
21481;DHT22;10902;48.158;8.634;2022-10-16T16:10:56;20.00;99.90
21481;DHT22;10902;48.158;8.634;2022-10-16T16:13:22;19.90;99.90
21481;DHT22;10902;48.158;8.634;2022-10-16T16:15:47;19.80;99.90
21481;DHT22;10902;48.158;8.634;2022-10-16T16:18:13;19.60;99.90
21481;DHT22;10902;48.158;8.634;2022-10-16T16:20:38;19.50;99.90
21481;DHT22;10902;48.158;8.634;2022-10-16T16:23:04;19.30;99.90
21481;DHT22;10902;48.158;8.634;2022-10-16T16:25:29;19.30;99.90
21481;DHT22;10902;48.158;8.634;2022-10-16T16:27:55;19.40;99.90
21481;DHT22;10902;48.158;8.634;2022-10-16T16:30:20;19.40;99.90
21481;DHT22;10902;48.158;8.634;2022-10-16T16:32:46;19.30;99.90
21481;DHT22;10902;48.158;8.634;2022-10-16T16:35:12;19.20;99.90
21481;DHT22;10902;48.158;8.634;2022-10-16T16:37:37;19.10;99.90
21481;DHT22;10902;48.158;8.634;2022-10-16T16:40:03;19.00;99.90
21481;DHT22;10902;48.158;8.634;2022-10-16T16:42:29;18.90;99.90
21481;DHT22;10902;48.158;8.634;2022-10-16T16:44:54;18.60;99.90
21481;DHT22;10902;48.158;8.634;2022-10-16T16:47:20;18.40;99.90
21481;DHT22;10902;48.158;8.634;2022-10-16T16:49:45;18.10;99.90
21481;DHT22;10902;48.158;8.634;2022-10-16T16:52:14;18.00;99.90
21481;DHT22;10902;48.158;8.634;2022-10-16T16:54:40;18.00;99.90
21481;DHT22;10902;48.158;8.634;2022-10-16T16:57:06;17.90;99.90
21481;DHT22;10902;48.158;8.634;2022-10-16T16:59:32;17.80;99.90
21481;DHT22;10902;48.158;8.634;2022-10-16T17:01:59;17.50;99.90
21481;DHT22;10902;48.158;8.634;2022-10-16T17:04:25;17.20;99.90
21481;DHT22;10902;48.158;8.634;2022-10-16T17:06:53;17.00;99.90
21481;DHT22;10902;48.158;8.634;2022-10-16T17:09:18;16.90;99.90
21481;DHT22;10902;48.158;8.634;2022-10-16T17:11:44;16.80;99.90
21481;DHT22;10902;48.158;8.634;2022-10-16T17:14:11;16.80;99.90
21481;DHT22;10902;48.158;8.634;2022-10-16T17:16:38;16.70;99.90
21481;DHT22;10902;48.158;8.634;2022-10-16T17:19:06;16.50;99.90
21481;DHT22;10902;48.158;8.634;2022-10-16T17:21:32;16.40;99.90